Grayson, Oklahoma
Current Conditions -  °F | °C
As of 7:15 AM on Friday 31 Oct 2014 (Local Time) from KOKM Reporting Station
Clear Clear  
Wind Chill: 41°   Ceiling: Unl
Heat Index: 48°   Visibility: 10mi
Dew Point: 40°   Wind: 16mph
Humidity: 76%   Direction: 350°N
Pressure: 30.32"   Gusts: 29mph
Location:  35.4729°N, 95.9709°W
Report Text: KOKM 311215Z AUTO 35014G25KT 10SM CLR 09/05 A3032 RMK AO2 T00870046
Loading
Personal Weather Stations






























Interactive Weather Map
Tropical Storm Tracking
New forecast layout! Learn more

10-Day Weather Forecast

Advertisements
Track Severe Weather on mobile